Airfield :
LOGIN :

Register | Disclaimer

   EN    FR    IT 

 










Legend :    VFR   Marginal VFR   IFR   Intensive IFR   Very Intensive IFR
Visi :
Ceiling :
>= 8 km
>= 3000ft
5 to 8 km
1000 to 3000 ft
1500m to 5 km
500 to 1000 ft
800 to 1500m
200 to 500 ft
< 800m
< 200 ft
Symbols :   Thunderstorms  Fog  Heavy snow  Heavy precipitations  Wind > 20 kt
SIGMETs :     Misc.  Thunderstorms  Icing  Turbulence  Mountain Waves  Volcanic Ashes







- Airport Elevation : 512 ft
- IATA code : URO
- Download approach charts


LFOP - Rouen Vallée de Seine

CURRENT METAR :
  • 191200Z AUTO 22020KT 9999 OVC023 19/13 Q1007 BECMG 15010KT

EXPIRED METARs :
  • 191130Z AUTO 19010KT 9999 BKN023 18/14 Q1007 NOSIG
  • 191100Z AUTO 16009KT 9999 FEW020 19/14 Q1007 TEMPO BKN013
  • 191030Z AUTO 16010KT CAVOK 18/13 Q1007 TEMPO BKN013
  • 191000Z AUTO 16012KT CAVOK 17/13 Q1007 TEMPO BKN013
  • 190930Z AUTO 15010KT CAVOK 15/12 Q1007 TEMPO BKN013

TAF TAF LFOP
Valid from the 19 at 12:00 until the 20 at 12:00 UTC


191100Z 1912/2012 15010KT CAVOK
TEMPO 1920/2002 20020G30KT 4000 RA BKN012
BECMG 2009/2011 22015G25KT
ATIS : +33 2 35 80 80 34
Met : +33 2 32 86 52 80
No reported NOTAMs for that airfield.



MET'MAP, your aeronautical weather chart ! - Copyright ORBIFLY December 2007 - Disclaimer

ORBIFLY MET'MAP TEAM :

Programming & Development : Alexandra Zaïnal
Concept & Development : Baudouin d'Aumeries
Co-Development & Prog : Marc-Olivier Méhu
Technical & hardware support : Manuel Goepfert

Contact : metmap@orbifly.com




SOURCES & CREDITS :

   NOAA